createdAt,value
2017-12-24T00:01:47.330Z,8.80
2017-12-24T00:04:15.005Z,8.80
2017-12-24T00:06:42.534Z,8.70
2017-12-24T00:09:10.071Z,8.70
2017-12-24T00:11:37.657Z,8.70
2017-12-24T00:14:05.184Z,8.80
2017-12-24T00:16:32.723Z,8.80
2017-12-24T00:19:01.279Z,8.70
2017-12-24T00:21:28.814Z,8.70
2017-12-24T00:23:57.107Z,8.70
2017-12-24T00:26:25.644Z,8.70
2017-12-24T00:28:53.179Z,8.70
2017-12-24T00:31:20.705Z,8.70
2017-12-24T00:33:48.283Z,8.70
2017-12-24T00:36:15.821Z,8.70
2017-12-24T00:38:43.350Z,8.70
2017-12-24T00:41:11.981Z,8.70
2017-12-24T00:43:39.507Z,8.70
2017-12-24T00:46:07.798Z,8.70
2017-12-24T00:48:36.130Z,8.70
2017-12-24T00:51:03.658Z,8.70
2017-12-24T00:53:31.955Z,8.70
2017-12-24T00:56:00.483Z,8.70
2017-12-24T00:58:28.007Z,8.70
2017-12-24T01:00:55.562Z,8.80
2017-12-24T01:03:23.295Z,8.70
2017-12-24T01:05:50.834Z,8.80
2017-12-24T01:08:19.131Z,8.80
2017-12-24T01:10:46.931Z,8.70
2017-12-24T01:13:14.464Z,8.70
2017-12-24T01:15:42.763Z,8.80
2017-12-24T01:18:11.103Z,8.80
2017-12-24T01:20:39.421Z,8.80
2017-12-24T01:23:06.951Z,8.80
2017-12-24T01:25:34.715Z,8.80
2017-12-24T01:28:02.261Z,8.80
2017-12-24T01:30:29.819Z,8.80
2017-12-24T01:32:58.163Z,8.80
2017-12-24T01:35:25.703Z,8.80
2017-12-24T01:37:53.256Z,8.90
2017-12-24T01:40:20.838Z,8.90
2017-12-24T01:42:48.375Z,8.90
2017-12-24T01:45:15.907Z,8.90
2017-12-24T01:47:51.032Z,8.90
2017-12-24T01:50:18.561Z,8.90
2017-12-24T01:52:47.592Z,8.80
2017-12-24T01:55:15.934Z,8.80
2017-12-24T01:57:43.473Z,8.80
2017-12-24T02:00:11.004Z,8.90
2017-12-24T02:02:39.439Z,8.90
2017-12-24T02:05:06.976Z,8.90
2017-12-24T02:07:34.505Z,8.90
2017-12-24T02:10:02.111Z,8.80
2017-12-24T02:12:30.411Z,8.80
2017-12-24T02:14:58.711Z,8.70
2017-12-24T02:17:26.403Z,8.70
2017-12-24T02:19:53.947Z,8.70
2017-12-24T02:22:22.251Z,8.70
2017-12-24T02:24:49.926Z,8.70
2017-12-24T02:27:17.459Z,8.70
2017-12-24T02:29:44.990Z,8.70
2017-12-24T02:32:12.754Z,8.60
2017-12-24T02:34:40.286Z,8.60
2017-12-24T02:37:08.594Z,8.60
2017-12-24T02:39:36.165Z,8.50
2017-12-24T02:42:03.694Z,8.50
2017-12-24T02:44:31.231Z,8.50
2017-12-24T02:46:58.904Z,8.50
2017-12-24T02:49:26.435Z,8.50
2017-12-24T02:51:54.742Z,8.40
2017-12-24T02:54:22.322Z,8.40
2017-12-24T02:56:49.856Z,8.40
2017-12-24T02:59:18.155Z,8.40
2017-12-24T03:01:46.499Z,8.30
2017-12-24T03:04:14.030Z,8.30
2017-12-24T03:06:41.563Z,8.30
2017-12-24T03:09:09.329Z,8.30
2017-12-24T03:11:36.866Z,8.30
2017-12-24T03:14:04.403Z,8.40
2017-12-24T03:16:32.750Z,8.30
2017-12-24T03:19:00.293Z,8.30
2017-12-24T03:21:27.831Z,8.30
2017-12-24T03:23:56.171Z,8.30
2017-12-24T03:26:23.707Z,8.30
2017-12-24T03:28:51.235Z,8.30
2017-12-24T03:31:18.825Z,8.30
2017-12-24T03:33:46.361Z,8.30
2017-12-24T03:36:13.891Z,8.30
2017-12-24T03:38:41.596Z,8.30
2017-12-24T03:41:09.124Z,8.20
2017-12-24T03:43:36.657Z,8.20
2017-12-24T03:46:04.244Z,8.20
2017-12-24T03:48:32.548Z,8.20
2017-12-24T03:51:00.842Z,8.20
2017-12-24T03:53:29.367Z,8.20
2017-12-24T03:55:56.902Z,8.30
2017-12-24T03:58:25.210Z,8.30
2017-12-24T04:00:52.799Z,8.30
2017-12-24T04:03:20.326Z,8.20
2017-12-24T04:05:47.854Z,8.20
2017-12-24T04:08:15.443Z,8.20
2017-12-24T04:10:42.973Z,8.20
2017-12-24T04:13:10.515Z,8.20
2017-12-24T04:15:38.870Z,8.20
2017-12-24T04:18:06.406Z,8.20
2017-12-24T04:20:33.939Z,8.20
2017-12-24T04:23:01.511Z,8.20
2017-12-24T04:25:29.047Z,8.20
2017-12-24T04:27:56.575Z,8.20
2017-12-24T04:30:24.276Z,8.20
2017-12-24T04:32:51.809Z,8.20
2017-12-24T04:35:20.107Z,8.20
2017-12-24T04:37:48.438Z,8.20
2017-12-24T04:40:15.968Z,8.30
2017-12-24T04:42:43.502Z,8.30
2017-12-24T04:45:11.245Z,8.30
2017-12-24T04:47:38.770Z,8.30
2017-12-24T04:50:07.068Z,8.20
2017-12-24T04:52:35.406Z,8.20
2017-12-24T04:55:02.957Z,8.20
2017-12-24T04:57:30.488Z,8.20
2017-12-24T04:59:58.827Z,8.20
2017-12-24T05:02:26.374Z,8.20
2017-12-24T05:04:53.907Z,8.20
2017-12-24T05:07:21.632Z,8.20
2017-12-24T05:09:49.159Z,8.20
2017-12-24T05:12:17.455Z,8.20
2017-12-24T05:14:45.799Z,8.20
2017-12-24T05:17:13.328Z,8.20
2017-12-24T05:19:40.867Z,8.20
2017-12-24T05:22:08.599Z,8.20
2017-12-24T05:24:36.131Z,8.30
2017-12-24T05:27:04.432Z,8.20
2017-12-24T05:29:32.129Z,8.20
2017-12-24T05:31:59.666Z,8.20
2017-12-24T05:34:27.965Z,8.20
2017-12-24T05:36:56.325Z,8.20
2017-12-24T05:39:23.850Z,8.20
2017-12-24T05:41:51.378Z,8.20
2017-12-24T05:44:19.917Z,8.20
2017-12-24T05:46:47.451Z,8.20
2017-12-24T05:49:15.747Z,8.20
2017-12-24T05:51:44.275Z,8.20
2017-12-24T05:54:12.655Z,8.20
2017-12-24T05:56:40.199Z,8.20
2017-12-24T05:59:08.722Z,8.20
2017-12-24T06:01:36.264Z,8.20
2017-12-24T06:04:03.795Z,8.20
2017-12-24T06:06:31.545Z,8.20
2017-12-24T06:08:59.074Z,8.20
2017-12-24T06:11:27.371Z,8.20
2017-12-24T06:13:54.943Z,8.20
2017-12-24T06:16:22.479Z,8.20
2017-12-24T06:18:50.011Z,8.20
2017-12-24T06:21:17.697Z,8.20
2017-12-24T06:23:45.252Z,8.20
2017-12-24T06:26:12.793Z,8.20
2017-12-24T06:28:41.131Z,8.10
2017-12-24T06:31:08.688Z,8.10
2017-12-24T06:33:36.257Z,8.20
2017-12-24T06:36:03.838Z,8.20
2017-12-24T06:38:31.388Z,8.20
2017-12-24T06:40:58.963Z,8.20
2017-12-24T06:43:27.315Z,8.20
2017-12-24T06:45:55.647Z,8.20
2017-12-24T06:48:23.182Z,8.20
2017-12-24T06:50:51.526Z,8.20
2017-12-24T06:53:19.076Z,8.10
2017-12-24T06:55:46.607Z,8.20
2017-12-24T06:58:15.153Z,8.10
2017-12-24T07:00:42.687Z,8.10
2017-12-24T07:03:10.989Z,8.10
2017-12-24T07:05:38.571Z,8.10
2017-12-24T07:08:06.109Z,8.10
2017-12-24T07:10:34.415Z,8.10
2017-12-24T07:13:01.994Z,8.10
2017-12-24T07:15:29.542Z,8.10
2017-12-24T07:17:57.848Z,8.10
2017-12-24T07:20:25.586Z,8.10
2017-12-24T07:22:53.887Z,8.10
2017-12-24T07:25:22.195Z,8.10
2017-12-24T07:27:49.905Z,8.10
2017-12-24T07:30:17.433Z,8.10
2017-12-24T07:32:45.730Z,8.10
2017-12-24T07:35:13.311Z,8.10
2017-12-24T07:37:40.851Z,8.10
2017-12-24T07:40:09.155Z,8.10
2017-12-24T07:42:36.740Z,8.10
2017-12-24T07:45:04.275Z,8.20
2017-12-24T07:47:31.808Z,8.20
2017-12-24T07:49:59.403Z,8.10
2017-12-24T07:52:26.951Z,8.10
2017-12-24T07:54:54.483Z,8.10
2017-12-24T07:57:22.283Z,8.20
2017-12-24T07:59:49.819Z,8.20
2017-12-24T08:02:18.108Z,8.20
2017-12-24T08:04:46.455Z,8.20
2017-12-24T08:07:14.009Z,8.20
2017-12-24T08:09:41.547Z,8.20
2017-12-24T08:12:09.888Z,8.20
2017-12-24T08:14:37.527Z,8.20
2017-12-24T08:17:05.064Z,8.20
2017-12-24T08:19:33.603Z,8.20
2017-12-24T08:22:01.135Z,8.20
2017-12-24T08:24:29.435Z,8.10
2017-12-24T08:26:57.007Z,8.10
2017-12-24T08:29:25.414Z,8.20
2017-12-24T08:31:52.943Z,8.10
2017-12-24T08:34:20.523Z,8.10
2017-12-24T08:36:48.822Z,8.10
2017-12-24T08:39:17.119Z,8.10
2017-12-24T08:41:44.821Z,8.10
2017-12-24T08:44:12.363Z,8.20
2017-12-24T08:46:39.903Z,8.10
2017-12-24T08:49:08.247Z,8.20
2017-12-24T08:51:35.815Z,8.10
2017-12-24T08:54:03.375Z,8.20
2017-12-24T08:56:31.065Z,8.20
2017-12-24T08:58:59.607Z,8.20
2017-12-24T09:01:27.930Z,8.20
2017-12-24T09:03:56.035Z,8.20
2017-12-24T09:06:23.667Z,8.20
2017-12-24T09:08:51.970Z,8.20
2017-12-24T09:11:19.560Z,8.20
2017-12-24T09:13:47.108Z,8.30
2017-12-24T09:16:15.425Z,8.30
2017-12-24T09:18:43.475Z,8.30
2017-12-24T09:21:11.767Z,8.30
2017-12-24T09:23:40.067Z,8.30
2017-12-24T09:26:07.772Z,8.30
2017-12-24T09:28:36.008Z,8.30
2017-12-24T09:31:04.304Z,8.30
2017-12-24T09:33:32.696Z,8.30
2017-12-24T09:36:00.996Z,8.30
2017-12-24T09:38:28.531Z,8.20
2017-12-24T09:40:56.119Z,8.20
2017-12-24T09:43:24.415Z,8.30
2017-12-24T09:45:52.707Z,8.30
2017-12-24T09:48:21.164Z,8.30
2017-12-24T09:50:49.490Z,8.30
2017-12-24T09:53:17.895Z,8.30
2017-12-24T09:55:45.474Z,8.20
2017-12-24T09:58:13.011Z,8.30
2017-12-24T10:00:41.313Z,8.30
2017-12-24T10:03:08.888Z,8.30
2017-12-24T10:05:36.418Z,8.30
2017-12-24T10:08:03.981Z,8.30
2017-12-24T10:10:31.556Z,8.30
2017-12-24T10:13:03.174Z,8.30
2017-12-24T10:15:31.590Z,8.30
2017-12-24T10:17:59.180Z,8.30
2017-12-24T10:20:27.556Z,8.30
2017-12-24T10:22:55.243Z,8.30
2017-12-24T10:25:22.803Z,8.30
2017-12-24T10:27:50.340Z,8.30
2017-12-24T10:30:17.945Z,8.30
2017-12-24T10:32:45.485Z,8.20
2017-12-24T10:35:13.027Z,8.30
2017-12-24T10:37:41.486Z,8.20
2017-12-24T10:40:09.167Z,8.20
2017-12-24T10:42:36.709Z,8.30
2017-12-24T10:45:04.285Z,8.20
2017-12-24T10:47:31.843Z,8.20
2017-12-24T10:49:59.387Z,8.20
2017-12-24T10:52:27.735Z,8.20
2017-12-24T10:54:55.275Z,8.20
2017-12-24T10:57:22.811Z,8.20
2017-12-24T10:59:51.146Z,8.20
2017-12-24T11:02:18.679Z,8.10
2017-12-24T11:04:46.970Z,8.30
2017-12-24T11:07:15.526Z,8.50
2017-12-24T11:09:43.066Z,8.50
2017-12-24T11:12:11.436Z,8.80
2017-12-24T11:14:39.032Z,8.80
2017-12-24T11:17:06.563Z,8.80
2017-12-24T11:19:34.862Z,8.50
2017-12-24T11:22:02.571Z,8.50
2017-12-24T11:24:30.110Z,8.50
2017-12-24T11:26:57.698Z,8.40
2017-12-24T11:29:25.381Z,8.30
2017-12-24T11:31:52.940Z,8.30
2017-12-24T11:34:20.489Z,8.30
2017-12-24T11:36:49.027Z,8.20
2017-12-24T11:39:16.604Z,8.20
2017-12-24T11:41:44.464Z,8.20
2017-12-24T11:44:12.056Z,8.20
2017-12-24T11:46:39.583Z,8.20
2017-12-24T11:49:07.116Z,8.20
2017-12-24T11:51:34.841Z,8.20
2017-12-24T11:54:02.379Z,8.30
2017-12-24T11:56:30.679Z,8.30
2017-12-24T11:58:59.023Z,8.30
2017-12-24T12:01:26.557Z,8.30
2017-12-24T12:03:54.083Z,8.30
2017-12-24T12:06:23.161Z,8.20
2017-12-24T12:08:50.696Z,8.20
2017-12-24T12:11:18.247Z,8.20
2017-12-24T12:13:46.873Z,8.20
2017-12-24T12:16:14.446Z,8.20
2017-12-24T12:18:42.028Z,8.20
2017-12-24T12:21:09.607Z,8.20
2017-12-24T12:23:37.135Z,8.20
2017-12-24T12:26:05.435Z,8.20
2017-12-24T12:28:33.955Z,8.20
2017-12-24T12:31:01.617Z,8.20
2017-12-24T12:33:29.150Z,8.20
2017-12-24T12:35:57.694Z,8.20
2017-12-24T12:38:25.227Z,8.20
2017-12-24T12:40:53.529Z,8.30
2017-12-24T12:43:21.251Z,8.20
2017-12-24T12:45:48.780Z,8.20
2017-12-24T12:48:16.332Z,8.20
2017-12-24T12:50:44.679Z,8.30
2017-12-24T12:53:12.224Z,8.20
2017-12-24T12:55:39.755Z,8.30
2017-12-24T12:58:08.093Z,8.20
2017-12-24T13:00:35.636Z,8.20
2017-12-24T13:03:03.178Z,8.20
2017-12-24T13:05:30.758Z,8.20
2017-12-24T13:07:59.067Z,8.20
2017-12-24T13:10:26.608Z,8.20
2017-12-24T13:12:54.187Z,8.20
2017-12-24T13:15:22.492Z,8.20
2017-12-24T13:17:50.779Z,8.20
2017-12-24T13:20:19.111Z,8.20
2017-12-24T13:22:46.648Z,8.20
2017-12-24T13:25:14.183Z,8.20
2017-12-24T13:27:41.916Z,8.20
2017-12-24T13:30:09.467Z,8.20
2017-12-24T13:32:37.004Z,8.20
2017-12-24T13:35:05.435Z,8.20
2017-12-24T13:37:33.008Z,8.20
2017-12-24T13:40:00.539Z,8.20
2017-12-24T13:42:28.123Z,8.20
2017-12-24T13:44:56.410Z,8.20
2017-12-24T13:47:24.739Z,8.20
2017-12-24T13:49:52.519Z,8.20
2017-12-24T13:52:20.120Z,8.20
2017-12-24T13:54:47.746Z,8.20
2017-12-24T13:57:15.404Z,8.30
2017-12-24T13:59:43.720Z,8.30
2017-12-24T14:02:11.254Z,8.30
2017-12-24T14:04:39.790Z,8.30
2017-12-24T14:07:07.323Z,8.30
2017-12-24T14:09:34.883Z,8.30
2017-12-24T14:12:02.556Z,8.30
2017-12-24T14:14:30.887Z,8.30
2017-12-24T14:16:58.416Z,8.30
2017-12-24T14:19:26.956Z,8.30
2017-12-24T14:21:54.495Z,8.30
2017-12-24T14:24:22.807Z,8.30
2017-12-24T14:26:50.392Z,8.30
2017-12-24T14:29:17.946Z,8.30
2017-12-24T14:31:45.553Z,8.30
2017-12-24T14:34:13.314Z,8.30
2017-12-24T14:36:40.859Z,8.30
2017-12-24T14:39:08.412Z,8.40
2017-12-24T14:41:36.743Z,8.40
2017-12-24T14:44:04.283Z,8.40
2017-12-24T14:46:31.820Z,8.40
2017-12-24T14:48:59.397Z,8.40
2017-12-24T14:51:26.930Z,8.40
2017-12-24T14:53:54.479Z,8.40
2017-12-24T14:56:22.147Z,8.40
2017-12-24T14:58:49.744Z,8.40
2017-12-24T15:01:17.280Z,8.40
2017-12-24T15:03:45.719Z,8.40
2017-12-24T15:06:13.247Z,8.40
2017-12-24T15:08:40.770Z,8.40
2017-12-24T15:11:08.343Z,8.40
2017-12-24T15:13:35.868Z,8.50
2017-12-24T15:16:03.386Z,8.50
2017-12-24T15:18:31.016Z,8.50
2017-12-24T15:20:58.556Z,8.40
2017-12-24T15:23:26.857Z,8.50
2017-12-24T15:25:54.460Z,8.50
2017-12-24T15:28:22.005Z,8.50
2017-12-24T15:30:49.546Z,8.50
2017-12-24T15:33:17.771Z,8.60
2017-12-24T15:35:45.313Z,8.60
2017-12-24T15:38:13.628Z,8.50
2017-12-24T15:40:41.202Z,8.50
2017-12-24T15:43:08.816Z,8.60
2017-12-24T15:45:36.347Z,8.60
2017-12-24T15:48:03.938Z,8.60
2017-12-24T15:50:31.481Z,8.60
2017-12-24T15:52:59.017Z,8.60
2017-12-24T15:55:26.607Z,8.60
2017-12-24T15:57:54.899Z,8.60
2017-12-24T16:00:23.199Z,8.60
2017-12-24T16:02:50.779Z,8.60
2017-12-24T16:05:18.303Z,8.60
2017-12-24T16:07:45.884Z,8.60
2017-12-24T16:10:13.558Z,8.60
2017-12-24T16:12:41.091Z,8.60
2017-12-24T16:15:08.627Z,8.60
2017-12-24T16:17:36.218Z,8.70
2017-12-24T16:20:03.750Z,8.70
2017-12-24T16:22:32.055Z,8.70
2017-12-24T16:24:59.766Z,8.70
2017-12-24T16:27:27.296Z,8.70
2017-12-24T16:29:55.624Z,8.70
2017-12-24T16:32:23.207Z,8.70
2017-12-24T16:34:50.737Z,8.70
2017-12-24T16:37:18.274Z,8.70
2017-12-24T16:39:45.962Z,8.70
2017-12-24T16:42:14.255Z,8.70
2017-12-24T16:44:42.561Z,8.70
2017-12-24T16:47:10.135Z,8.70
2017-12-24T16:49:37.663Z,8.70
2017-12-24T16:52:05.195Z,8.80
2017-12-24T16:54:32.831Z,8.80
2017-12-24T16:57:01.127Z,8.80
2017-12-24T16:59:28.688Z,8.80
2017-12-24T17:01:57.132Z,8.80
2017-12-24T17:04:24.702Z,8.80
2017-12-24T17:06:52.226Z,8.80
2017-12-24T17:09:20.559Z,8.80
2017-12-24T17:11:48.096Z,8.80
2017-12-24T17:14:15.630Z,8.80
2017-12-24T17:16:43.199Z,8.80
2017-12-24T17:19:10.732Z,8.80
2017-12-24T17:21:38.284Z,8.80
2017-12-24T17:24:05.856Z,8.80
2017-12-24T17:26:33.383Z,8.80
2017-12-24T17:29:00.917Z,8.80
2017-12-24T17:31:28.499Z,8.80
2017-12-24T17:33:56.037Z,8.80
2017-12-24T17:36:23.612Z,8.80
2017-12-24T17:38:51.270Z,8.80
2017-12-24T17:41:19.572Z,8.80
2017-12-24T17:43:47.106Z,8.80
2017-12-24T17:46:14.835Z,8.80
2017-12-24T17:48:42.361Z,8.80
2017-12-24T17:51:10.650Z,8.80
2017-12-24T17:53:39.051Z,8.90
2017-12-24T17:56:07.357Z,8.90
2017-12-24T17:58:34.890Z,8.90
2017-12-24T18:01:02.599Z,8.90
2017-12-24T18:03:30.126Z,8.90
2017-12-24T18:05:57.659Z,8.90
2017-12-24T18:08:25.335Z,8.90
2017-12-24T18:10:52.870Z,8.90
2017-12-24T18:13:21.172Z,9.00
2017-12-24T18:15:48.852Z,8.90
2017-12-24T18:18:16.385Z,8.90
2017-12-24T18:20:43.910Z,8.90
2017-12-24T18:23:11.522Z,8.90
2017-12-24T18:25:39.051Z,8.90
2017-12-24T18:28:06.579Z,8.90
2017-12-24T18:30:35.015Z,9.00
2017-12-24T18:33:02.543Z,9.00
2017-12-24T18:35:30.847Z,8.90
2017-12-24T18:37:58.419Z,9.00
2017-12-24T18:40:25.957Z,9.00
2017-12-24T18:42:53.509Z,9.00
2017-12-24T18:45:21.231Z,9.00
2017-12-24T18:47:48.777Z,9.00
2017-12-24T18:50:16.310Z,9.00
2017-12-24T18:52:44.026Z,9.00
2017-12-24T18:55:11.559Z,9.00
2017-12-24T18:57:39.095Z,9.00
2017-12-24T19:00:06.810Z,9.00
2017-12-24T19:02:34.343Z,9.00
2017-12-24T19:05:01.942Z,9.10
2017-12-24T19:07:29.619Z,9.10
2017-12-24T19:09:57.147Z,9.10
2017-12-24T19:12:25.439Z,9.10
2017-12-24T19:14:53.164Z,9.10
2017-12-24T19:17:20.701Z,9.10
2017-12-24T19:19:48.230Z,9.10
2017-12-24T19:22:15.898Z,9.10
2017-12-24T19:24:43.436Z,9.10
2017-12-24T19:27:10.985Z,9.10
2017-12-24T19:29:39.335Z,9.10
2017-12-24T19:32:06.875Z,9.10
2017-12-24T19:34:34.415Z,9.10
2017-12-24T19:37:02.131Z,9.10
2017-12-24T19:39:29.667Z,9.10
2017-12-24T19:41:57.206Z,9.10
2017-12-24T19:44:25.739Z,9.20
2017-12-24T19:46:53.270Z,9.20
2017-12-24T19:49:20.800Z,9.20
2017-12-24T19:51:48.472Z,9.20
2017-12-24T19:54:16.016Z,9.20
2017-12-24T19:56:43.554Z,9.10
2017-12-24T19:59:12.105Z,9.20
2017-12-24T20:01:39.649Z,9.20
2017-12-24T20:04:07.183Z,9.20
2017-12-24T20:06:35.723Z,9.20
2017-12-24T20:09:03.281Z,9.20
2017-12-24T20:11:30.808Z,9.20
2017-12-24T20:13:58.467Z,9.20
2017-12-24T20:16:26.172Z,9.30
2017-12-24T20:18:54.485Z,9.30
2017-12-24T20:21:22.149Z,9.20
2017-12-24T20:23:49.687Z,9.30
2017-12-24T20:26:17.248Z,9.20
2017-12-24T20:28:44.993Z,9.30
2017-12-24T20:31:12.533Z,9.30
2017-12-24T20:33:40.842Z,9.30
2017-12-24T20:36:08.526Z,9.30
2017-12-24T20:38:36.074Z,9.30
2017-12-24T20:41:04.404Z,9.40
2017-12-24T20:43:32.175Z,9.30
2017-12-24T20:45:59.711Z,9.40
2017-12-24T20:48:27.262Z,9.30
2017-12-24T20:50:54.983Z,9.40
2017-12-24T20:53:22.510Z,9.60
2017-12-24T20:55:50.811Z,9.90
2017-12-24T20:58:18.510Z,9.90
2017-12-24T21:00:46.050Z,10.00
2017-12-24T21:03:14.370Z,10.10
2017-12-24T21:05:42.023Z,10.10
2017-12-24T21:08:09.568Z,10.00
2017-12-24T21:10:37.123Z,9.90
2017-12-24T21:13:04.764Z,9.80
2017-12-24T21:15:32.300Z,9.70
2017-12-24T21:17:59.850Z,9.70
2017-12-24T21:20:28.207Z,9.50
2017-12-24T21:22:55.740Z,9.50
2017-12-24T21:25:23.275Z,9.50
2017-12-24T21:27:51.014Z,9.50
2017-12-24T21:30:18.561Z,9.50
2017-12-24T21:32:46.095Z,9.50
2017-12-24T21:35:14.655Z,9.40
2017-12-24T21:37:42.196Z,9.40
2017-12-24T21:40:09.741Z,9.40
2017-12-24T21:42:38.290Z,9.40
2017-12-24T21:45:05.843Z,9.40
2017-12-24T21:47:33.383Z,9.40
2017-12-24T21:50:01.815Z,9.40
2017-12-24T21:52:29.347Z,9.40
2017-12-24T21:54:57.647Z,9.40
2017-12-24T21:57:25.232Z,9.40
2017-12-24T21:59:52.778Z,9.40
2017-12-24T22:02:21.120Z,9.40
2017-12-24T22:04:48.695Z,9.40
2017-12-24T22:07:16.231Z,9.30
2017-12-24T22:09:43.774Z,9.40
2017-12-24T22:12:11.607Z,9.30
2017-12-24T22:14:39.135Z,9.30
2017-12-24T22:17:07.432Z,9.30
2017-12-24T22:19:35.004Z,9.30
2017-12-24T22:22:02.538Z,9.30
2017-12-24T22:24:30.074Z,9.40
2017-12-24T22:26:57.648Z,9.40
2017-12-24T22:29:25.176Z,9.40
2017-12-24T22:31:52.724Z,9.40
2017-12-24T22:34:20.457Z,9.30
2017-12-24T22:36:47.991Z,9.30
2017-12-24T22:39:16.299Z,9.30
2017-12-24T22:41:43.973Z,9.30
2017-12-24T22:44:11.511Z,9.30
2017-12-24T22:46:39.819Z,9.40
2017-12-24T22:49:07.627Z,9.40
2017-12-24T22:51:35.170Z,9.40
2017-12-24T22:54:02.730Z,9.40
2017-12-24T22:56:31.080Z,9.40
2017-12-24T22:58:58.607Z,9.30
2017-12-24T23:01:26.140Z,9.40
2017-12-24T23:03:54.110Z,9.30
2017-12-24T23:06:21.646Z,9.40
2017-12-24T23:08:49.182Z,9.40
2017-12-24T23:11:17.518Z,9.40
2017-12-24T23:13:45.044Z,9.40
2017-12-24T23:16:13.335Z,9.40
2017-12-24T23:18:41.858Z,9.40
2017-12-24T23:21:09.428Z,9.40
2017-12-24T23:23:36.972Z,9.40
2017-12-24T23:26:05.310Z,9.40
2017-12-24T23:28:32.851Z,9.40
2017-12-24T23:31:00.379Z,9.40
2017-12-24T23:33:28.103Z,9.40
2017-12-24T23:35:55.631Z,9.40
2017-12-24T23:38:23.943Z,9.30
2017-12-24T23:40:51.510Z,9.30
2017-12-24T23:43:19.044Z,9.30
2017-12-24T23:45:48.083Z,9.20
2017-12-24T23:48:16.517Z,9.20
2017-12-24T23:50:44.073Z,9.20
2017-12-24T23:53:11.658Z,9.10
2017-12-24T23:55:39.210Z,9.10
2017-12-24T23:58:06.831Z,9.10
